Time;durP1;ratioP1;P1;durP2;ratioP2;P2;SDS_P1;SDS_P2;PMS_P1;PMS_P2;Temp;Humidity;BMP_temperature;BMP_pressure;BME280_temperature;BME280_humidity;BME280_pressure;Samples;Min_cycle;Max_cycle;Signal;HPM_P1;HPM_P2
2022/12/10 00:01:10;;;;;;;;;;;;;;;-7.95;100.00;100258.66;5062290;28;20129;-58
2022/12/10 00:03:35;;;;;;;;;;;;;;;-8.00;100.00;100265.78;5062373;28;19924;-59
2022/12/10 00:06:01;;;;;;;;;;;;;;;-8.02;100.00;100259.91;5063373;28;19924;-59
2022/12/10 00:08:27;;;;;;;;;;;;;;;-8.04;100.00;100254.81;5068139;28;19960;-59
2022/12/10 00:10:52;;;;;;;;;;;;;;;-8.05;100.00;100260.03;5067985;28;19959;-59
2022/12/10 00:13:17;;;;;;;;;;;;;;;-8.07;100.00;100255.00;5067798;28;19964;-59
2022/12/10 00:15:42;;;;;;;;;;;;;;;-8.06;100.00;100260.97;5068776;28;20400;-58
2022/12/10 00:18:08;;;;;;;;;;;;;;;-8.07;100.00;100260.13;5069136;28;19921;-57
2022/12/10 00:20:33;;;;;;;;;;;;;;;-8.02;100.00;100259.91;5067501;28;19927;-59
2022/12/10 00:22:58;;;;;;;;;;;;;;;-7.97;100.00;100257.94;5067079;28;20347;-59
2022/12/10 00:25:23;;;;;;;;;;;;;;;-7.91;100.00;100260.19;5067255;28;20027;-58
2022/12/10 00:27:48;;;;;;;;;;;;;;;-7.93;100.00;100257.66;5069415;28;19920;-59
2022/12/10 00:30:14;;;;;;;;;;;;;;;-7.99;100.00;100252.03;5067726;28;19924;-59
2022/12/10 00:32:39;;;;;;;;;;;;;;;-8.03;100.00;100242.78;5065767;28;20279;-59
2022/12/10 00:35:04;;;;;;;;;;;;;;;-8.06;100.00;100253.25;5068728;28;20305;-58
2022/12/10 00:37:30;;;;;;;;;;;;;;;-8.09;100.00;100253.41;5068144;28;20214;-59
2022/12/10 00:39:55;;;;;;;;;;;;;;;-8.11;100.00;100248.31;5069787;28;19923;-57
2022/12/10 00:42:20;;;;;;;;;;;;;;;-8.13;100.00;100247.56;5066421;28;19925;-59
2022/12/10 00:44:45;;;;;;;;;;;;;;;-8.14;100.00;100249.31;5067330;28;19935;-59
2022/12/10 00:47:10;;;;;;;;;;;;;;;-8.12;100.00;100254.38;5067922;28;19928;-58
2022/12/10 00:49:36;;;;;;;;;;;;;;;-8.18;100.00;100250.38;5068569;28;19920;-59
2022/12/10 00:52:01;;;;;;;;;;;;;;;-8.14;100.00;100254.44;5068365;28;19920;-59
2022/12/10 00:54:26;;;;;;;;;;;;;;;-8.17;100.00;100244.31;5064537;28;19920;-59
2022/12/10 00:56:52;;;;;;;;;;;;;;;-8.23;100.00;100248.97;5067709;28;19921;-58
2022/12/10 00:59:17;;;;;;;;;;;;;;;-8.26;100.00;100254.22;5066814;28;20003;-58
2022/12/10 01:01:42;;;;;;;;;;;;;;;-8.21;100.00;100257.41;5067113;28;19948;-59
2022/12/10 01:04:09;;;;;;;;;;;;;;;-8.17;100.00;100253.78;5065222;28;20007;-59
2022/12/10 01:06:36;;;;;;;;;;;;;;;-8.16;100.00;100255.44;5069319;28;19924;-59
2022/12/10 01:09:03;;;;;;;;;;;;;;;-8.21;100.00;100247.97;5068101;28;19927;-59
2022/12/10 01:11:30;;;;;;;;;;;;;;;-8.23;100.00;100249.78;5025306;28;20469;-59
2022/12/10 01:13:55;;;;;;;;;;;;;;;-8.25;100.00;100259.31;5045388;28;20013;-59
2022/12/10 01:16:21;;;;;;;;;;;;;;;-8.26;100.00;100256.81;5059964;28;20025;-60
2022/12/10 01:18:46;;;;;;;;;;;;;;;-8.30;100.00;100269.00;5074688;28;19921;-59
2022/12/10 01:21:14;;;;;;;;;;;;;;;-8.34;100.00;100262.31;5069688;28;19920;-59
2022/12/10 01:23:40;;;;;;;;;;;;;;;-8.38;100.00;100269.38;5069223;28;20019;-57
2022/12/10 01:26:07;;;;;;;;;;;;;;;-8.40;100.00;100272.97;5067510;28;19967;-58
2022/12/10 01:28:33;;;;;;;;;;;;;;;-8.42;100.00;100275.59;5078378;28;19924;-59
2022/12/10 01:31:03;;;;;;;;;;;;;;;-8.44;100.00;100277.44;5066774;28;19928;-59
2022/12/10 01:33:28;;;;;;;;;;;;;;;-8.44;100.00;100282.56;5069672;28;19924;-58
2022/12/10 01:35:53;;;;;;;;;;;;;;;-8.44;100.00;100280.00;5068324;28;19977;-59
2022/12/10 01:38:18;;;;;;;;;;;;;;;-8.43;100.00;100283.41;5074764;28;19926;-59
2022/12/10 01:40:44;;;;;;;;;;;;;;;-8.45;100.00;100283.47;5062390;28;20409;-59
2022/12/10 01:43:13;;;;;;;;;;;;;;;-8.45;100.00;100280.06;5067626;28;20293;-59
2022/12/10 01:45:38;;;;;;;;;;;;;;;-8.45;100.00;100280.06;5067602;28;19955;-59
2022/12/10 01:48:03;;;;;;;;;;;;;;;-8.44;100.00;100276.56;5074895;28;19924;-59
2022/12/10 01:50:29;;;;;;;;;;;;;;;-8.47;100.00;100282.69;5068059;28;19920;-59
2022/12/10 01:52:54;;;;;;;;;;;;;;;-8.49;100.00;100286.25;5063572;28;19928;-58
2022/12/10 01:55:55;;;;;;;;;;;;;;;-8.52;100.00;100286.41;5070109;28;20381;-59
2022/12/10 01:58:20;;;;;;;;;;;;;;;-8.55;100.00;100274.53;5027855;28;20406;-58
2022/12/10 02:01:04;;;;;;;;;;;;;;;-8.59;100.00;100275.59;5059532;28;20377;-57
2022/12/10 02:03:39;;;;;;;;;;;;;;;-8.59;100.00;100279.00;5069393;28;19927;-58
2022/12/10 02:06:30;;;;;;;;;;;;;;;-8.56;100.00;100283.16;5071367;28;20439;-58
2022/12/10 02:09:11;;;;;;;;;;;;;;;-8.55;100.00;100282.25;5049962;28;19920;-59
2022/12/10 02:11:46;;;;;;;;;;;;;;;-8.53;100.00;100284.75;5072052;28;19925;-59
2022/12/10 02:14:15;;;;;;;;;;;;;;;-8.53;100.00;100274.47;5069211;28;19983;-57
2022/12/10 02:16:43;;;;;;;;;;;;;;;-8.56;100.00;100281.41;5071786;28;19924;-58
2022/12/10 02:19:12;;;;;;;;;;;;;;;-8.59;100.00;100278.19;5073070;28;20384;-58
2022/12/10 02:21:40;;;;;;;;;;;;;;;-8.62;100.00;100280.88;5069433;28;20373;-58
2022/12/10 02:24:11;;;;;;;;;;;;;;;-8.63;100.00;100280.03;5073654;28;19928;-60
2022/12/10 02:26:45;;;;;;;;;;;;;;;-8.64;100.00;100272.44;5072931;28;19920;-58
2022/12/10 02:29:15;;;;;;;;;;;;;;;-8.65;100.00;100281.03;5080058;28;19921;-59
2022/12/10 02:31:43;;;;;;;;;;;;;;;-8.66;100.00;100277.63;5070201;28;19920;-59
2022/12/10 02:34:10;;;;;;;;;;;;;;;-8.68;100.00;100269.16;5070046;28;19920;-59
2022/12/10 02:36:38;;;;;;;;;;;;;;;-8.71;100.00;100268.47;5074375;28;20420;-58
2022/12/10 02:39:06;;;;;;;;;;;;;;;-8.71;100.00;100266.72;5074807;28;20074;-58
2022/12/10 02:41:37;;;;;;;;;;;;;;;-8.75;100.00;100265.22;5069217;28;19924;-59
2022/12/10 02:44:05;;;;;;;;;;;;;;;-8.75;100.00;100267.81;5080047;28;19920;-59
2022/12/10 02:46:32;;;;;;;;;;;;;;;-8.68;100.00;100258.88;5077721;28;20313;-57
2022/12/10 02:48:58;;;;;;;;;;;;;;;-8.66;100.00;100262.22;5081972;28;20339;-58
2022/12/10 02:51:23;;;;;;;;;;;;;;;-8.65;100.00;100258.72;5070111;28;19949;-59
2022/12/10 02:53:58;;;;;;;;;;;;;;;-8.67;100.00;100269.97;5069104;28;19959;-59
2022/12/10 02:56:29;;;;;;;;;;;;;;;-8.75;100.00;100261.81;5068939;28;19927;-58
2022/12/10 02:58:58;;;;;;;;;;;;;;;-8.78;100.00;100262.78;5069424;28;19928;-57
2022/12/10 03:01:32;;;;;;;;;;;;;;;-8.80;100.00;100267.19;5068529;28;19924;-59
2022/12/10 03:04:03;;;;;;;;;;;;;;;-8.83;100.00;100265.59;5069771;28;20038;-60
2022/12/10 03:06:49;;;;;;;;;;;;;;;-8.83;100.00;100264.75;5077147;28;19924;-59
2022/12/10 03:09:19;;;;;;;;;;;;;;;-8.85;100.00;100257.13;5068832;28;20309;-60
2022/12/10 03:11:46;;;;;;;;;;;;;;;-8.90;100.00;100258.25;5062974;28;19940;-57
2022/12/10 03:14:27;;;;;;;;;;;;;;;-8.89;100.00;100258.16;5073799;28;19920;-59
2022/12/10 03:16:54;;;;;;;;;;;;;;;-8.89;100.00;100255.59;5072766;28;19924;-59
2022/12/10 03:19:22;;;;;;;;;;;;;;;-8.84;100.00;100265.66;5071043;28;19920;-59
2022/12/10 03:21:48;;;;;;;;;;;;;;;-8.83;100.00;100259.59;5063936;28;20237;-58
2022/12/10 03:24:15;;;;;;;;;;;;;;;-8.88;100.00;100266.69;5064753;28;19921;-59
2022/12/10 03:26:41;;;;;;;;;;;;;;;-8.92;100.00;100260.06;5079567;28;19927;-57
2022/12/10 03:29:08;;;;;;;;;;;;;;;-8.91;100.00;100256.56;5065817;28;19921;-57
2022/12/10 03:31:35;;;;;;;;;;;;;;;-8.88;100.00;100252.13;5073950;28;19928;-60
2022/12/10 03:34:01;;;;;;;;;;;;;;;-8.88;100.00;100251.28;5069528;28;20384;-58
2022/12/10 03:36:27;;;;;;;;;;;;;;;-8.86;100.00;100250.31;5077124;28;19924;-59
2022/12/10 03:38:53;;;;;;;;;;;;;;;-8.82;100.00;100258.72;5075422;28;19935;-58
2022/12/10 03:41:18;;;;;;;;;;;;;;;-8.82;100.00;100251.00;5067214;28;20270;-58
2022/12/10 03:43:50;;;;;;;;;;;;;;;-8.84;100.00;100258.78;5071791;28;19957;-58
2022/12/10 03:46:16;;;;;;;;;;;;;;;-8.85;100.00;100261.44;5066748;28;19927;-58
2022/12/10 03:48:41;;;;;;;;;;;;;;;-8.88;100.00;100254.72;5075309;28;19924;-59
2022/12/10 03:51:06;;;;;;;;;;;;;;;-8.93;100.00;100250.66;5070991;28;19927;-58
2022/12/10 03:53:31;;;;;;;;;;;;;;;-8.94;100.00;100254.16;5066453;28;20023;-59
2022/12/10 03:55:57;;;;;;;;;;;;;;;-8.93;100.00;100258.38;5066488;28;19971;-57
2022/12/10 03:58:22;;;;;;;;;;;;;;;-8.92;100.00;100254.91;5077730;28;19920;-59
2022/12/10 04:00:47;;;;;;;;;;;;;;;-8.96;100.00;100255.94;5077755;28;19938;-59
2022/12/10 04:03:12;;;;;;;;;;;;;;;-8.96;100.00;100253.38;5069660;28;19921;-59
2022/12/10 04:05:38;;;;;;;;;;;;;;;-8.97;100.00;100252.56;5071687;28;20014;-59
2022/12/10 04:08:03;;;;;;;;;;;;;;;-8.98;100.00;100257.75;5072157;28;20347;-57
2022/12/10 04:10:28;;;;;;;;;;;;;;;-8.94;100.00;100262.69;5071274;28;19945;-57
2022/12/10 04:16:26;;;;;;;;;;;;;;;-8.91;100.00;100251.44;5071315;28;20045;-59
2022/12/10 04:18:22;;;;;;;;;;;;;;;-8.98;100.00;100239.78;5074370;28;19930;-57
2022/12/10 04:28:59;;;;;;;;;;;;;;;-8.89;100.00;100242.75;5070018;28;19935;-59
2022/12/10 04:31:25;;;;;;;;;;;;;;;-8.90;100.00;100247.97;5064493;28;19928;-59
2022/12/10 04:33:50;;;;;;;;;;;;;;;-8.94;100.00;100254.16;5068947;28;19924;-57
2022/12/10 04:36:15;;;;;;;;;;;;;;;-8.96;100.00;100255.94;5084342;28;20444;-59
2022/12/10 04:38:40;;;;;;;;;;;;;;;-9.02;100.00;100255.34;5071238;28;20285;-57
2022/12/10 04:41:15;;;;;;;;;;;;;;;-9.05;100.00;100252.09;5069291;28;20270;-59
2022/12/10 04:43:40;;;;;;;;;;;;;;;-9.07;100.00;100253.91;5071324;28;19950;-57
2022/12/10 04:46:05;;;;;;;;;;;;;;;-9.05;100.00;100245.22;5072610;28;19920;-59
2022/12/10 04:48:30;;;;;;;;;;;;;;;-9.04;100.00;100246.88;5066641;28;19932;-56
2022/12/10 04:50:55;;;;;;;;;;;;;;;-9.03;100.00;100250.28;5070906;28;20016;-59
2022/12/10 04:53:22;;;;;;;;;;;;;;;-9.05;100.00;100249.53;5069726;28;20499;-58
2022/12/10 04:55:47;;;;;;;;;;;;;;;-9.06;100.00;100253.84;5070732;28;19996;-59
2022/12/10 04:58:12;;;;;;;;;;;;;;;-9.09;100.00;100246.25;5074435;28;19940;-57
2022/12/10 05:00:38;;;;;;;;;;;;;;;-9.11;100.00;100248.06;5078744;28;19932;-59
2022/12/10 05:03:03;;;;;;;;;;;;;;;-9.14;100.00;100250.75;5074610;28;19959;-59
2022/12/10 05:05:28;;;;;;;;;;;;;;;-9.15;100.00;100251.69;5071592;28;19932;-59
2022/12/10 05:07:53;;;;;;;;;;;;;;;-9.14;100.00;100242.22;5074021;28;20420;-59
2022/12/10 05:10:19;;;;;;;;;;;;;;;-9.12;100.00;100251.53;5063600;28;19936;-59
2022/12/10 05:12:44;;;;;;;;;;;;;;;-9.13;100.00;100255.03;5077369;28;19920;-58
2022/12/10 05:15:09;;;;;;;;;;;;;;;-9.15;100.00;100256.81;5068444;28;19920;-59
2022/12/10 05:17:35;;;;;;;;;;;;;;;-9.17;100.00;100263.75;5072960;28;19930;-59
2022/12/10 05:20:00;;;;;;;;;;;;;;;-9.18;100.00;100262.09;5070883;28;19920;-60
2022/12/10 05:25:09;;;;;;;;;;;;;;;-9.20;100.00;100255.38;5067260;28;19927;-56
2022/12/10 05:27:34;;;;;;;;;;;;;;;-9.20;100.00;100256.19;5069043;28;20290;-59
2022/12/10 05:29:59;;;;;;;;;;;;;;;-9.19;100.00;100257.03;5075722;28;20391;-59
2022/12/10 05:32:24;;;;;;;;;;;;;;;-9.20;100.00;100256.19;5071288;28;19920;-59
2022/12/10 05:34:50;;;;;;;;;;;;;;;-9.23;100.00;100256.34;5071381;28;19921;-57
2022/12/10 05:37:15;;;;;;;;;;;;;;;-9.25;100.00;100258.16;5073642;28;20027;-59
2022/12/10 05:39:40;;;;;;;;;;;;;;;-9.28;100.00;100253.97;5064810;28;20015;-59
2022/12/10 05:42:05;;;;;;;;;;;;;;;-9.24;100.00;100252.94;5064576;28;19978;-55
2022/12/10 05:44:30;;;;;;;;;;;;;;;-9.22;100.00;100252.88;5071909;28;19999;-59
2022/12/10 05:46:56;;;;;;;;;;;;;;;-9.14;100.00;100249.94;5069918;28;20377;-59
2022/12/10 05:49:21;;;;;;;;;;;;;;;-9.11;100.00;100247.22;5069608;28;19920;-59
2022/12/10 05:51:46;;;;;;;;;;;;;;;-9.10;100.00;100239.47;5069286;28;20266;-59
2022/12/10 05:54:12;;;;;;;;;;;;;;;-9.08;100.00;100249.66;5079943;28;20293;-59
2022/12/10 05:56:37;;;;;;;;;;;;;;;-9.09;100.00;100255.69;5075513;28;19931;-59
2022/12/10 05:59:03;;;;;;;;;;;;;;;-9.11;100.00;100258.34;5067175;28;19921;-59
2022/12/10 06:01:30;;;;;;;;;;;;;;;-9.16;100.00;100257.72;5069890;28;20441;-59
2022/12/10 06:03:56;;;;;;;;;;;;;;;-9.24;100.00;100258.09;5077970;28;19928;-56
2022/12/10 06:06:23;;;;;;;;;;;;;;;-9.35;100.00;100257.72;5086312;28;20393;-59
2022/12/10 06:08:48;;;;;;;;;;;;;;;-9.37;100.00;100259.56;5066949;28;20023;-59
2022/12/10 06:11:13;;;;;;;;;;;;;;;-9.36;100.00;100262.94;5064104;28;20031;-59
2022/12/10 06:13:39;;;;;;;;;;;;;;;-9.31;100.00;100264.41;5074957;28;20156;-59
2022/12/10 06:16:08;;;;;;;;;;;;;;;-9.24;100.00;100264.94;5074539;28;19928;-59
2022/12/10 06:18:34;;;;;;;;;;;;;;;-9.22;100.00;100263.97;5071204;28;19982;-59
2022/12/10 06:21:02;;;;;;;;;;;;;;;-9.24;100.00;100265.78;5074011;28;20372;-59
2022/12/10 06:23:27;;;;;;;;;;;;;;;-9.23;100.00;100269.19;5068871;28;20259;-59
2022/12/10 06:25:52;;;;;;;;;;;;;;;-9.27;100.00;100262.50;5068954;28;19927;-59
2022/12/10 06:28:18;;;;;;;;;;;;;;;-9.32;100.00;100259.31;5069141;28;20022;-58
2022/12/10 06:30:43;;;;;;;;;;;;;;;-9.36;100.00;100263.78;5068440;28;20017;-59
2022/12/10 06:33:08;;;;;;;;;;;;;;;-9.42;100.00;100261.50;5071162;28;19960;-59
2022/12/10 06:35:33;;;;;;;;;;;;;;;-9.43;100.00;100265.78;5067509;28;19928;-59
2022/12/10 06:37:59;;;;;;;;;;;;;;;-9.46;100.00;100268.47;5081716;28;20300;-58
2022/12/10 06:40:24;;;;;;;;;;;;;;;-9.50;100.00;100268.69;5073793;28;20284;-59
2022/12/10 06:42:52;;;;;;;;;;;;;;;-9.48;100.00;100275.41;5065866;28;19924;-59
2022/12/10 06:45:18;;;;;;;;;;;;;;;-9.49;100.00;100273.75;5067067;28;19928;-59
2022/12/10 06:47:43;;;;;;;;;;;;;;;-9.48;100.00;100270.28;5068935;28;19925;-59
2022/12/10 06:50:09;;;;;;;;;;;;;;;-9.42;100.00;100271.75;5076091;28;19924;-59
2022/12/10 06:52:34;;;;;;;;;;;;;;;-9.36;100.00;100273.22;5070665;28;19987;-59
2022/12/10 06:54:59;;;;;;;;;;;;;;;-9.35;100.00;100270.56;5070890;28;19920;-59
2022/12/10 06:57:24;;;;;;;;;;;;;;;-9.36;100.00;100271.47;5072847;28;19955;-59
2022/12/10 06:59:50;;;;;;;;;;;;;;;-9.40;100.00;100275.06;5073387;28;19924;-59
2022/12/10 07:02:15;;;;;;;;;;;;;;;-9.41;100.00;100277.72;5071818;28;19923;-59
2022/12/10 07:04:40;;;;;;;;;;;;;;;-9.41;100.00;100275.16;5073143;28;19928;-59
2022/12/10 07:07:06;;;;;;;;;;;;;;;-9.40;100.00;100275.06;5068693;28;19981;-59
2022/12/10 07:09:32;;;;;;;;;;;;;;;-9.39;100.00;100281.06;5070583;28;19969;-59
2022/12/10 07:11:57;;;;;;;;;;;;;;;-9.41;100.00;100277.72;5069039;28;20027;-59
2022/12/10 07:14:22;;;;;;;;;;;;;;;-9.40;100.00;100287.91;5070349;28;19927;-59
2022/12/10 07:16:47;;;;;;;;;;;;;;;-9.37;100.00;100284.38;5070030;28;19920;-59
2022/12/10 07:19:13;;;;;;;;;;;;;;;-9.40;100.00;100284.53;5071441;28;19928;-59
2022/12/10 07:21:41;;;;;;;;;;;;;;;-9.44;100.00;100289.78;5069431;28;19962;-59
2022/12/10 07:24:09;;;;;;;;;;;;;;;-9.43;100.00;100286.31;5073583;28;19920;-59
2022/12/10 07:26:36;;;;;;;;;;;;;;;-9.40;100.00;100281.94;5072004;28;19925;-59
2022/12/10 07:29:02;;;;;;;;;;;;;;;-9.44;100.00;100269.25;5069074;28;20421;-59
2022/12/10 07:31:27;;;;;;;;;;;;;;;-9.44;100.00;100273.56;5070385;28;20400;-60
2022/12/10 07:33:53;;;;;;;;;;;;;;;-9.47;100.00;100277.09;5068690;28;19970;-57
2022/12/10 07:36:19;;;;;;;;;;;;;;;-9.46;100.00;100275.38;5069476;28;20365;-59
2022/12/10 07:38:44;;;;;;;;;;;;;;;-9.46;100.00;100281.31;5070523;28;19924;-59
2022/12/10 07:41:11;;;;;;;;;;;;;;;-9.48;100.00;100274.59;5070119;28;19924;-58
2022/12/10 07:43:37;;;;;;;;;;;;;;;-9.49;100.00;100276.31;5071504;28;19967;-59
2022/12/10 07:46:04;;;;;;;;;;;;;;;-9.51;100.00;100277.31;5072150;28;19959;-59
2022/12/10 07:48:29;;;;;;;;;;;;;;;-9.54;100.00;100278.28;5072378;28;19928;-58
2022/12/10 07:50:57;;;;;;;;;;;;;;;-9.51;100.00;100273.00;5071457;28;19970;-59
2022/12/10 07:53:23;;;;;;;;;;;;;;;-9.51;100.00;100278.13;5065515;28;19921;-59
2022/12/10 07:55:48;;;;;;;;;;;;;;;-9.49;100.00;100275.50;5071297;28;19927;-58
2022/12/10 07:58:13;;;;;;;;;;;;;;;-9.46;100.00;100286.47;5070847;28;19967;-59
2022/12/10 08:00:38;;;;;;;;;;;;;;;-9.45;100.00;100282.16;5067320;28;19930;-59
2022/12/10 08:03:04;;;;;;;;;;;;;;;-9.45;100.00;100285.56;5069119;28;19935;-60
2022/12/10 08:05:29;;;;;;;;;;;;;;;-9.44;100.00;100289.78;5068727;28;20206;-59
2022/12/10 08:07:54;;;;;;;;;;;;;;;-9.45;100.00;100285.56;5071656;28;19931;-59
2022/12/10 08:10:19;;;;;;;;;;;;;;;-9.47;100.00;100282.22;5070738;28;20513;-58
2022/12/10 08:12:45;;;;;;;;;;;;;;;-9.48;100.00;100288.25;5071622;28;19924;-59
2022/12/10 08:15:10;;;;;;;;;;;;;;;-9.47;100.00;100289.94;5072514;28;19958;-59
2022/12/10 08:17:35;;;;;;;;;;;;;;;-9.45;100.00;100290.72;5068691;28;19973;-59
2022/12/10 08:20:00;;;;;;;;;;;;;;;-9.39;100.00;100288.78;5070043;28;19928;-59
2022/12/10 08:22:26;;;;;;;;;;;;;;;-9.37;100.00;100292.06;5068493;28;19927;-59
2022/12/10 08:24:51;;;;;;;;;;;;;;;-9.37;100.00;100295.50;5067442;28;19967;-60
2022/12/10 08:27:16;;;;;;;;;;;;;;;-9.38;100.00;100288.69;5068337;28;20018;-60
2022/12/10 08:29:41;;;;;;;;;;;;;;;-9.39;100.00;100296.47;5064489;28;19920;-60
2022/12/10 08:32:07;;;;;;;;;;;;;;;-9.39;100.00;100294.72;5068173;28;19927;-59
2022/12/10 08:34:32;;;;;;;;;;;;;;;-9.34;100.00;100302.25;5064571;28;20450;-59
2022/12/10 08:36:57;;;;;;;;;;;;;;;-9.26;100.00;100298.41;5072521;28;20831;-59
2022/12/10 08:39:22;;;;;;;;;;;;;;;-9.17;100.00;100298.88;5068594;28;20332;-60
2022/12/10 08:41:48;;;;;;;;;;;;;;;-9.11;100.00;100304.59;5068685;28;19925;-60
2022/12/10 08:44:13;;;;;;;;;;;;;;;-9.06;100.00;100300.06;5071633;28;19920;-60
2022/12/10 08:46:39;;;;;;;;;;;;;;;-9.02;100.00;100306.72;5070127;28;19924;-60
2022/12/10 08:49:06;;;;;;;;;;;;;;;-8.97;100.00;100305.69;5069347;28;19928;-59
2022/12/10 08:51:31;;;;;;;;;;;;;;;-8.92;100.00;100312.28;5069113;28;19924;-58
2022/12/10 08:53:56;;;;;;;;;;;;;;;-8.87;100.00;100310.31;5072029;28;19924;-59
2022/12/10 08:56:22;;;;;;;;;;;;;;;-8.85;100.00;100310.25;5071517;28;19924;-61
2022/12/10 08:58:47;;;;;;;;;;;;;;;-8.84;100.00;100310.19;5069331;28;19951;-60
2022/12/10 09:01:14;;;;;;;;;;;;;;;-8.75;100.00;100316.63;5067164;28;19920;-60
2022/12/10 09:03:39;;;;;;;;;;;;;;;-8.61;100.00;100313.41;5067875;28;19917;-60
2022/12/10 09:06:05;;;;;;;;;;;;;;;-8.43;100.00;100316.84;5070070;28;20023;-61
2022/12/10 09:08:31;;;;;;;;;;;;;;;-8.29;100.00;100316.94;5068057;28;19917;-59
2022/12/10 09:10:56;;;;;;;;;;;;;;;-8.19;100.00;100313.03;5071714;28;19978;-60
2022/12/10 09:13:21;;;;;;;;;;;;;;;-8.10;100.00;100319.47;5070065;28;19916;-60
2022/12/10 09:15:51;;;;;;;;;;;;;;;-8.00;100.00;100319.81;5067067;28;19920;-60
2022/12/10 09:18:16;;;;;;;;;;;;;;;-7.92;100.00;100321.13;5070012;28;20022;-61
2022/12/10 09:20:41;;;;;;;;;;;;;;;-7.80;100.00;100318.81;5065108;28;20007;-60
2022/12/10 09:23:06;;;;;;;;;;;;;;;-7.73;100.00;100320.19;5073379;28;20438;-61
2022/12/10 09:25:32;;;;;;;;;;;;;;;-7.56;100.00;100321.88;5065895;28;20011;-61
2022/12/10 09:27:57;;;;;;;;;;;;;;;-7.47;100.00;100327.38;5072214;28;19931;-61
2022/12/10 09:30:22;;;;;;;;;;;;;;;-7.34;100.00;100327.59;5072637;28;19922;-61
2022/12/10 09:32:47;;;;;;;;;;;;;;;-7.25;100.00;100321.13;5067536;28;19965;-61
2022/12/10 09:35:12;;;;;;;;;;;;;;;-7.15;100.00;100329.19;5075295;28;20008;-62
2022/12/10 09:37:38;;;;;;;;;;;;;;;-7.07;100.00;100327.06;5069218;28;19928;-62
2022/12/10 09:40:03;;;;;;;;;;;;;;;-6.96;100.00;100324.72;5074809;28;19920;-62
2022/12/10 09:42:36;;;;;;;;;;;;;;;-6.80;100.00;100319.56;5070415;28;20000;-61
2022/12/10 09:45:04;;;;;;;;;;;;;;;-6.69;100.00;100321.53;5070797;28;19930;-63
2022/12/10 09:47:33;;;;;;;;;;;;;;;-6.48;100.00;100327.25;5058713;28;19928;-61
2022/12/10 09:50:03;;;;;;;;;;;;;;;-6.27;100.00;100328.63;5060271;28;19924;-62
2022/12/10 09:52:36;;;;;;;;;;;;;;;-6.11;100.00;100326.00;5065410;28;19924;-62
2022/12/10 09:55:05;;;;;;;;;;;;;;;-5.92;100.00;100329.13;5064197;28;19920;-61
2022/12/10 09:57:36;;;;;;;;;;;;;;;-5.77;100.00;100324.00;5064863;28;20409;-61
2022/12/10 10:00:07;;;;;;;;;;;;;;;-5.64;100.00;100330.09;5058973;28;19958;-62
2022/12/10 10:02:32;;;;;;;;;;;;;;;-5.50;100.00;100329.28;5063326;28;19921;-61
2022/12/10 10:05:18;;;;;;;;;;;;;;;-5.37;100.00;100335.41;5064040;28;19935;-61
2022/12/10 10:07:45;;;;;;;;;;;;;;;-5.23;100.00;100334.56;5061201;28;19932;-61
2022/12/10 10:10:30;;;;;;;;;;;;;;;-5.09;100.00;100331.94;5064249;28;19952;-61
2022/12/10 10:12:59;;;;;;;;;;;;;;;-4.90;100.00;100333.41;5064929;28;19959;-61
2022/12/10 10:15:28;;;;;;;;;;;;;;;-4.78;100.00;100324.84;5070476;28;19966;-62
2022/12/10 10:17:56;;;;;;;;;;;;;;;-4.61;100.00;100331.56;5063851;28;20945;-62
2022/12/10 10:20:21;;;;;;;;;;;;;;;-4.48;100.00;100322.09;5065091;28;19928;-63
2022/12/10 10:22:46;;;;;;;;;;;;;;;-4.41;100.00;100322.53;5062523;28;19921;-61
2022/12/10 10:25:17;;;;;;;;;;;;;;;-4.43;100.00;100321.78;5060513;28;19927;-62
2022/12/10 10:27:42;;;;;;;;;;;;;;;-4.46;100.00;100324.59;5070729;28;19969;-62
2022/12/10 10:30:13;;;;;;;;;;;;;;;-4.43;100.00;100321.78;5065503;28;20007;-63
2022/12/10 10:32:38;;;;;;;;;;;;;;;-4.30;100.00;100325.25;5064746;28;20404;-62
2022/12/10 10:35:04;;;;;;;;;;;;;;;-4.08;100.00;100329.00;5069491;28;19963;-62
2022/12/10 10:37:40;;;;;;;;;;;;;;;-3.92;100.00;100324.50;5060622;28;19971;-63
2022/12/10 10:40:05;;;;;;;;;;;;;;;-3.83;100.00;100329.06;5063754;28;19951;-63
2022/12/10 10:42:36;;;;;;;;;;;;;;;-3.73;100.00;100324.91;5061696;28;20419;-63
2022/12/10 10:45:06;;;;;;;;;;;;;;;-3.67;100.00;100323.66;5063355;28;20374;-64
2022/12/10 10:47:33;;;;;;;;;;;;;;;-3.59;100.00;100328.34;5060853;28;19924;-63
2022/12/10 10:49:59;;;;;;;;;;;;;;;-3.51;100.00;100326.06;5067177;28;19925;-63
2022/12/10 10:52:27;;;;;;;;;;;;;;;-3.32;100.00;100321.28;5064935;28;20128;-64
2022/12/10 10:54:52;;;;;;;;;;;;;;;-3.18;100.00;100330.69;5072040;28;19958;-64
2022/12/10 10:57:18;;;;;;;;;;;;;;;-3.11;100.00;100321.53;5070763;28;19924;-63
2022/12/10 10:59:43;;;;;;;;;;;;;;;-3.04;100.00;100324.56;5068851;28;20383;-63
2022/12/10 11:02:28;;;;;;;;;;;;;;;-2.83;100.00;100324.81;5072238;28;19920;-64
2022/12/10 11:04:55;;;;;;;;;;;;;;;-2.61;100.00;100328.44;5069956;28;19935;-64
2022/12/10 11:07:22;;;;;;;;;;;;;;;-2.41;100.00;100330.44;5071674;28;19920;-65
2022/12/10 11:09:48;;;;;;;;;;;;;;;-2.15;100.00;100325.94;5072134;28;19924;-64
2022/12/10 11:12:40;;;;;;;;;;;;;;;-1.93;100.00;100325.19;5067483;28;19920;-64
2022/12/10 11:15:23;;;;;;;;;;;;;;;-1.74;100.00;100322.03;5064036;28;20279;-64
2022/12/10 11:17:52;;;;;;;;;;;;;;;-1.52;100.00;100317.78;5064866;28;20449;-64
2022/12/10 11:20:19;;;;;;;;;;;;;;;-1.36;100.00;100321.72;5070251;28;20043;-64
2022/12/10 11:22:53;;;;;;;;;;;;;;;-1.18;100.00;100322.06;5071695;28;20411;-64
2022/12/10 11:25:20;;;;;;;;;;;;;;;-1.03;100.00;100317.44;5072549;28;19928;-64
2022/12/10 11:27:48;;;;;;;;;;;;;;;-0.89;100.00;100318.97;5072864;28;19924;-64
2022/12/10 11:30:17;;;;;;;;;;;;;;;-0.75;100.00;100318.72;5069440;28;20338;-64
2022/12/10 11:32:45;;;;;;;;;;;;;;;-0.61;100.00;100308.97;5070395;28;20465;-64
2022/12/10 11:35:22;;;;;;;;;;;;;;;-0.45;100.00;100311.97;5070598;28;20011;-64
2022/12/10 11:37:51;;;;;;;;;;;;;;;-0.17;100.00;100307.94;5070250;28;19928;-64
2022/12/10 11:40:22;;;;;;;;;;;;;;;0.10;100.00;100298.78;5070906;28;20635;-64
2022/12/10 11:43:11;;;;;;;;;;;;;;;0.23;100.00;100302.03;5068752;28;19924;-64
2022/12/10 11:45:54;;;;;;;;;;;;;;;0.41;100.00;100297.03;5060343;28;19920;-65
2022/12/10 11:48:38;;;;;;;;;;;;;;;0.54;100.00;100299.44;5068410;28;19925;-64
2022/12/10 11:51:22;;;;;;;;;;;;;;;0.59;100.00;100298.09;5068905;28;19966;-64
2022/12/10 11:54:08;;;;;;;;;;;;;;;0.74;100.00;100300.34;5069361;28;20007;-64
2022/12/10 11:56:37;;;;;;;;;;;;;;;0.82;100.00;100292.69;5064435;28;20396;-65
2022/12/10 11:59:17;;;;;;;;;;;;;;;0.89;100.00;100287.75;5070678;28;19920;-64
2022/12/10 12:01:55;;;;;;;;;;;;;;;0.99;100.00;100281.59;5068451;28;19970;-64
2022/12/10 12:04:23;;;;;;;;;;;;;;;1.05;100.00;100288.91;5071239;28;19920;-64
2022/12/10 12:06:51;;;;;;;;;;;;;;;1.13;100.00;100280.38;5070426;28;19925;-65
2022/12/10 12:09:28;;;;;;;;;;;;;;;1.20;100.00;100283.31;5066818;28;19924;-63
2022/12/10 12:12:15;;;;;;;;;;;;;;;1.29;100.00;100264.19;5067661;28;19968;-65
2022/12/10 12:14:45;;;;;;;;;;;;;;;1.40;100.00;100271.91;5068728;28;19930;-65
2022/12/10 12:17:21;;;;;;;;;;;;;;;1.52;100.00;100268.22;5067443;28;19917;-64
2022/12/10 12:19:50;;;;;;;;;;;;;;;1.63;100.00;100269.84;5063783;28;19921;-64
2022/12/10 12:22:29;;;;;;;;;;;;;;;1.74;100.00;100269.69;5063168;28;19927;-64
2022/12/10 12:24:59;;;;;;;;;;;;;;;1.76;100.00;100266.97;5067932;28;19935;-65
2022/12/10 12:27:27;;;;;;;;;;;;;;;1.82;100.00;100266.38;5069953;28;19929;-64
2022/12/10 12:30:03;;;;;;;;;;;;;;;1.90;100.00;100261.28;5065266;28;19972;-64
2022/12/10 12:32:49;;;;;;;;;;;;;;;1.95;100.00;100258.25;5078618;28;20026;-64
2022/12/10 12:35:17;;;;;;;;;;;;;;;2.06;100.00;100265.09;5074616;28;19941;-64
2022/12/10 12:37:47;;;;;;;;;;;;;;;2.08;100.00;100258.78;5072909;28;19943;-64
2022/12/10 12:40:21;;;;;;;;;;;;;;;2.18;100.00;100256.13;5071415;28;20263;-64
2022/12/10 12:43:04;;;;;;;;;;;;;;;2.26;100.00;100258.84;5069346;28;19981;-64
2022/12/10 12:45:40;;;;;;;;;;;;;;;2.27;100.00;100252.69;5067524;28;19920;-64